createdAt,value
2019-03-21T00:01:38.671Z,103463.64
2019-03-21T00:04:13.184Z,103471.16
2019-03-21T00:06:44.201Z,103466.73
2019-03-21T00:09:17.765Z,103462.97
2019-03-21T00:12:09.556Z,103461.24
2019-03-21T00:15:14.585Z,103460.83
2019-03-21T00:17:50.632Z,103461.24
2019-03-21T00:20:21.569Z,103464.28
2019-03-21T00:22:52.514Z,103462.60
2019-03-21T00:25:24.831Z,103461.38
2019-03-21T00:27:55.821Z,103456.56
2019-03-21T00:30:26.972Z,103460.48
2019-03-21T00:32:58.066Z,103458.20
2019-03-21T00:35:29.098Z,103462.27
2019-03-21T00:38:00.098Z,103462.35
2019-03-21T00:40:35.028Z,103466.36
2019-03-21T00:43:09.477Z,103466.36
2019-03-21T00:45:40.405Z,103468.98
2019-03-21T00:48:14.055Z,103465.86
2019-03-21T00:50:45.097Z,103462.02
2019-03-21T00:53:16.044Z,103459.81
2019-03-21T00:55:48.045Z,103463.32
2019-03-21T00:58:18.980Z,103463.41
2019-03-21T01:00:53.148Z,103462.56
2019-03-21T01:03:24.140Z,103467.39
2019-03-21T01:05:55.133Z,103462.56
2019-03-21T01:08:25.988Z,103462.91
2019-03-21T01:10:56.975Z,103465.05
2019-03-21T01:13:31.426Z,103462.86
2019-03-21T01:16:02.440Z,103455.47
2019-03-21T01:18:33.495Z,103456.69
2019-03-21T01:21:04.366Z,103455.89
2019-03-21T01:23:35.411Z,103450.31
2019-03-21T01:26:07.996Z,103447.69
2019-03-21T01:28:39.257Z,103443.34
2019-03-21T01:31:10.498Z,103436.80
2019-03-21T01:33:42.003Z,103444.73
2019-03-21T01:36:12.986Z,103443.90
2019-03-21T01:38:44.119Z,103445.67
2019-03-21T01:41:15.360Z,103441.36
2019-03-21T01:43:46.412Z,103434.39
2019-03-21T01:46:17.862Z,103429.16
2019-03-21T01:48:48.969Z,103437.35
2019-03-21T01:51:19.952Z,103437.02
2019-03-21T01:53:50.984Z,103440.61
2019-03-21T01:56:22.015Z,103438.95
2019-03-21T01:58:53.368Z,103439.00
2019-03-21T02:01:24.491Z,103439.17
2019-03-21T02:03:55.456Z,103433.72
2019-03-21T02:06:27.257Z,103428.41
2019-03-21T02:08:58.470Z,103431.86
2019-03-21T02:11:29.539Z,103427.09
2019-03-21T02:14:00.561Z,103419.23
2019-03-21T02:16:31.671Z,103414.50
2019-03-21T02:19:02.729Z,103412.34
2019-03-21T02:21:34.025Z,103407.27
2019-03-21T02:24:05.881Z,103398.40
2019-03-21T02:26:37.180Z,103397.35
2019-03-21T02:29:08.341Z,103399.42
2019-03-21T02:31:39.561Z,103396.38
2019-03-21T02:34:11.035Z,103397.70
2019-03-21T02:36:42.518Z,103390.75
2019-03-21T02:39:13.877Z,103394.69
2019-03-21T02:41:44.931Z,103391.22
2019-03-21T02:44:15.998Z,103392.06
2019-03-21T02:46:47.021Z,103403.09
2019-03-21T02:49:18.027Z,103404.83
2019-03-21T02:51:49.212Z,103395.23
2019-03-21T02:54:20.447Z,103392.27
2019-03-21T02:56:51.994Z,103394.47
2019-03-21T02:59:25.488Z,103395.78
2019-03-21T03:01:56.812Z,103392.31
2019-03-21T03:04:27.981Z,103399.37
2019-03-21T03:06:59.894Z,103398.60
2019-03-21T03:09:30.993Z,103393.83
2019-03-21T03:12:02.106Z,103396.40
2019-03-21T03:14:32.974Z,103408.05
2019-03-21T03:17:03.901Z,103405.02
2019-03-21T03:19:34.912Z,103402.73
2019-03-21T03:22:05.973Z,103403.91
2019-03-21T03:24:38.458Z,103405.68
2019-03-21T03:27:09.346Z,103405.30
2019-03-21T03:29:40.323Z,103401.91
2019-03-21T03:32:11.372Z,103405.07
2019-03-21T03:34:42.335Z,103405.15
2019-03-21T03:37:13.306Z,103402.99
2019-03-21T03:39:44.168Z,103409.55
2019-03-21T03:42:15.088Z,103407.42
2019-03-21T03:44:45.974Z,103404.42
2019-03-21T03:47:16.908Z,103403.19
2019-03-21T03:49:47.783Z,103403.27
2019-03-21T03:52:18.715Z,103394.98
2019-03-21T03:54:49.669Z,103402.00
2019-03-21T03:57:20.672Z,103405.05
2019-03-21T03:59:51.680Z,103402.00
2019-03-21T04:02:22.701Z,103403.81
2019-03-21T04:04:53.622Z,103406.44
2019-03-21T04:07:25.043Z,103408.29
2019-03-21T04:09:56.015Z,103409.17
2019-03-21T04:12:26.969Z,103409.67
2019-03-21T04:14:57.995Z,103416.23
2019-03-21T04:17:29.037Z,103404.89
2019-03-21T04:19:59.893Z,103408.98
2019-03-21T04:22:30.825Z,103405.05
2019-03-21T04:25:01.959Z,103402.00
2019-03-21T04:27:33.027Z,103399.42
2019-03-21T04:30:04.081Z,103403.36
2019-03-21T04:32:35.000Z,103393.71
2019-03-21T04:35:06.600Z,103395.45
2019-03-21T04:37:37.487Z,103387.39
2019-03-21T04:40:09.877Z,103392.09
2019-03-21T04:42:40.864Z,103378.40
2019-03-21T04:45:15.994Z,103381.75
2019-03-21T04:47:46.947Z,103378.16
2019-03-21T04:50:21.651Z,103378.09
2019-03-21T04:52:52.633Z,103374.08
2019-03-21T04:55:23.572Z,103375.38
2019-03-21T04:57:54.646Z,103378.85
2019-03-21T05:00:28.665Z,103379.20
2019-03-21T05:03:01.424Z,103375.14
2019-03-21T05:05:32.323Z,103371.91
2019-03-21T05:08:03.281Z,103384.66
2019-03-21T05:10:34.256Z,103384.00
2019-03-21T05:13:05.270Z,103384.50
2019-03-21T05:15:38.794Z,103378.16
2019-03-21T05:18:17.189Z,103383.23
2019-03-21T05:20:48.191Z,103380.61
2019-03-21T05:23:19.136Z,103384.50
2019-03-21T05:25:50.081Z,103381.11
2019-03-21T05:28:20.948Z,103388.19
2019-03-21T05:30:56.606Z,103384.80
2019-03-21T05:33:27.694Z,103385.00
2019-03-21T05:35:58.622Z,103389.08
2019-03-21T05:38:30.673Z,103386.75
2019-03-21T05:41:01.719Z,103386.00
2019-03-21T05:43:58.975Z,103392.34
2019-03-21T05:46:30.204Z,103391.81
2019-03-21T05:49:01.185Z,103394.39
2019-03-21T05:52:00.108Z,103383.64
2019-03-21T05:54:31.101Z,103392.85
2019-03-21T05:57:02.157Z,103389.56
2019-03-21T05:59:33.072Z,103390.58
2019-03-21T06:02:04.201Z,103393.84
2019-03-21T06:04:35.198Z,103398.82
2019-03-21T06:07:43.544Z,103401.48
2019-03-21T06:10:16.330Z,103395.99
2019-03-21T06:12:47.867Z,103404.31
2019-03-21T06:15:25.834Z,103402.03
2019-03-21T06:18:34.452Z,103404.44
2019-03-21T06:21:24.203Z,103408.48
2019-03-21T06:25:08.426Z,103411.17
2019-03-21T06:27:39.452Z,103414.94
2019-03-21T06:30:12.267Z,103424.94
2019-03-21T06:32:43.349Z,103430.26
2019-03-21T06:35:24.350Z,103439.13
2019-03-21T06:37:55.873Z,103435.93
2019-03-21T06:40:27.176Z,103435.61
2019-03-21T06:42:58.632Z,103436.17
2019-03-21T06:45:30.076Z,103440.73
2019-03-21T06:48:01.541Z,103441.44
2019-03-21T06:50:33.065Z,103436.11
2019-03-21T06:53:04.373Z,103447.52
2019-03-21T06:55:35.889Z,103446.53
2019-03-21T06:58:07.963Z,103444.27
2019-03-21T07:00:39.319Z,103442.94
2019-03-21T07:03:10.750Z,103448.86
2019-03-21T07:05:41.929Z,103460.67
2019-03-21T07:08:13.321Z,103459.13
2019-03-21T07:10:44.408Z,103457.17
2019-03-21T07:13:16.150Z,103462.62
2019-03-21T07:15:47.494Z,103457.22
2019-03-21T07:18:18.448Z,103452.74
2019-03-21T07:20:49.506Z,103458.23
2019-03-21T07:23:20.638Z,103465.91
2019-03-21T07:25:51.786Z,103459.58
2019-03-21T07:28:22.832Z,103462.81
2019-03-21T07:30:53.926Z,103471.77
2019-03-21T07:33:24.878Z,103469.75
2019-03-21T07:35:55.916Z,103465.66
2019-03-21T07:38:27.128Z,103463.64
2019-03-21T07:40:58.167Z,103459.89
2019-03-21T07:43:29.156Z,103467.17
2019-03-21T07:46:02.615Z,103465.27
2019-03-21T07:48:33.577Z,103461.72
2019-03-21T07:51:06.890Z,103463.82
2019-03-21T07:53:37.851Z,103458.89
2019-03-21T07:56:08.933Z,103458.99
2019-03-21T07:58:39.849Z,103461.02
2019-03-21T08:01:10.935Z,103469.14
2019-03-21T08:03:42.006Z,103461.14
2019-03-21T08:06:13.202Z,103461.35
2019-03-21T08:08:44.100Z,103465.30
2019-03-21T08:11:15.032Z,103473.19
2019-03-21T08:13:46.342Z,103474.20
2019-03-21T08:16:20.155Z,103473.88
2019-03-21T08:18:51.313Z,103477.83
2019-03-21T08:21:22.247Z,103475.80
2019-03-21T08:23:53.164Z,103484.54
2019-03-21T08:26:24.156Z,103485.06
2019-03-21T08:28:54.979Z,103479.38
2019-03-21T08:31:25.909Z,103479.21
2019-03-21T08:33:56.962Z,103492.07
2019-03-21T08:36:28.047Z,103486.84
2019-03-21T08:38:59.060Z,103490.60
2019-03-21T08:41:30.158Z,103487.25
2019-03-21T08:44:01.244Z,103478.38
2019-03-21T08:46:32.189Z,103487.89
2019-03-21T08:49:03.251Z,103493.34
2019-03-21T08:51:34.301Z,103497.52
2019-03-21T08:54:05.367Z,103495.78
2019-03-21T08:56:36.451Z,103495.19
2019-03-21T08:59:07.741Z,103499.62
2019-03-21T09:01:38.962Z,103493.41
2019-03-21T09:04:10.016Z,103502.98
2019-03-21T09:06:41.097Z,103509.46
2019-03-21T09:09:12.498Z,103507.06
2019-03-21T09:11:43.954Z,103510.08
2019-03-21T09:14:15.451Z,103511.00
2019-03-21T09:16:46.634Z,103510.44
2019-03-21T09:19:17.571Z,103511.98
2019-03-21T09:21:48.482Z,103521.32
2019-03-21T09:24:24.104Z,103520.61
2019-03-21T09:26:55.170Z,103510.55
2019-03-21T09:29:26.136Z,103514.95
2019-03-21T09:31:57.179Z,103509.86
2019-03-21T09:34:28.234Z,103505.62
2019-03-21T09:36:59.292Z,103503.22
2019-03-21T09:39:30.300Z,103503.15
2019-03-21T09:42:01.598Z,103514.47
2019-03-21T09:44:32.673Z,103517.03
2019-03-21T09:47:03.779Z,103517.75
2019-03-21T09:49:34.879Z,103520.09
2019-03-21T09:52:05.962Z,103508.34
2019-03-21T09:54:37.016Z,103509.66
2019-03-21T09:57:08.064Z,103504.95
2019-03-21T09:59:38.930Z,103510.69
2019-03-21T10:02:09.945Z,103509.30
2019-03-21T10:04:40.996Z,103510.98
2019-03-21T10:07:11.939Z,103520.09
2019-03-21T10:09:45.182Z,103516.04
2019-03-21T10:12:16.871Z,103517.45
2019-03-21T10:14:47.999Z,103516.20
2019-03-21T10:17:19.079Z,103517.03
2019-03-21T10:19:50.076Z,103517.20
2019-03-21T10:22:21.063Z,103518.74
2019-03-21T10:24:52.039Z,103521.08
2019-03-21T10:27:23.043Z,103517.30
2019-03-21T10:29:54.041Z,103519.80
2019-03-21T10:32:25.052Z,103519.80
2019-03-21T10:34:55.981Z,103517.23
2019-03-21T10:37:26.912Z,103514.69
2019-03-21T10:39:57.857Z,103510.08
2019-03-21T10:42:28.884Z,103523.47
2019-03-21T10:45:00.376Z,103522.25
2019-03-21T10:47:31.495Z,103518.56
2019-03-21T10:50:02.392Z,103524.97
2019-03-21T10:52:33.477Z,103521.51
2019-03-21T10:55:04.607Z,103515.91
2019-03-21T10:57:35.586Z,103513.19
2019-03-21T11:00:08.524Z,103520.91
2019-03-21T11:02:39.574Z,103524.21
2019-03-21T11:05:11.045Z,103519.28
2019-03-21T11:07:42.075Z,103513.73
2019-03-21T11:10:13.276Z,103516.16
2019-03-21T11:12:44.475Z,103505.03
2019-03-21T11:15:15.942Z,103507.58
2019-03-21T11:17:47.047Z,103509.27
2019-03-21T11:20:32.166Z,103503.94
2019-03-21T11:23:03.396Z,103508.75
2019-03-21T11:25:34.678Z,103507.00
2019-03-21T11:28:06.915Z,103506.20
2019-03-21T11:30:43.346Z,103507.15
2019-03-21T11:33:14.399Z,103509.87
2019-03-21T11:35:45.479Z,103504.08
2019-03-21T11:38:16.624Z,103502.97
2019-03-21T11:40:48.533Z,103495.37
2019-03-21T11:43:20.543Z,103496.75
2019-03-21T11:45:51.637Z,103493.03
2019-03-21T11:48:22.636Z,103502.00
2019-03-21T11:50:53.608Z,103489.61
2019-03-21T11:53:24.576Z,103485.33
2019-03-21T11:55:55.687Z,103482.77
2019-03-21T11:58:26.772Z,103480.33
2019-03-21T12:00:57.842Z,103490.80
2019-03-21T12:03:29.033Z,103483.99
2019-03-21T12:06:00.057Z,103484.36
2019-03-21T12:08:32.347Z,103469.92
2019-03-21T12:11:03.522Z,103473.45
2019-03-21T12:13:34.383Z,103466.45
2019-03-21T12:16:05.491Z,103473.68
2019-03-21T12:18:36.589Z,103469.48
2019-03-21T12:21:07.629Z,103475.43
2019-03-21T12:23:38.599Z,103474.25
2019-03-21T12:26:09.491Z,103479.58
2019-03-21T12:28:40.520Z,103481.23
2019-03-21T12:31:11.618Z,103487.83
2019-03-21T12:33:42.801Z,103490.16
2019-03-21T12:36:13.879Z,103486.27
2019-03-21T12:38:44.906Z,103497.87
2019-03-21T12:41:15.997Z,103490.19
2019-03-21T12:43:47.162Z,103489.27
2019-03-21T12:46:18.184Z,103482.16
2019-03-21T12:48:52.269Z,103479.63
2019-03-21T12:51:24.677Z,103482.67
2019-03-21T12:53:55.770Z,103481.35
2019-03-21T12:56:26.753Z,103481.41
2019-03-21T12:59:00.428Z,103487.68
2019-03-21T13:01:31.323Z,103487.19
2019-03-21T13:04:02.380Z,103490.59
2019-03-21T13:06:33.525Z,103494.52
2019-03-21T13:09:06.337Z,103496.99
2019-03-21T13:11:37.364Z,103496.94
2019-03-21T13:14:08.484Z,103492.84
2019-03-21T13:16:39.572Z,103481.97
2019-03-21T13:19:10.600Z,103483.15
2019-03-21T13:21:41.541Z,103488.46
2019-03-21T13:24:12.524Z,103493.59
2019-03-21T13:26:43.579Z,103492.77
2019-03-21T13:29:14.583Z,103493.14
2019-03-21T13:31:45.632Z,103496.89
2019-03-21T13:34:16.563Z,103485.03
2019-03-21T13:36:47.490Z,103483.28
2019-03-21T13:39:18.419Z,103490.61
2019-03-21T13:41:49.365Z,103493.59
2019-03-21T13:44:20.333Z,103489.73
2019-03-21T13:46:51.407Z,103494.54
2019-03-21T13:49:22.627Z,103480.33
2019-03-21T13:51:53.736Z,103480.17
2019-03-21T13:54:24.699Z,103473.89
2019-03-21T13:56:55.704Z,103469.85
2019-03-21T13:59:26.678Z,103475.58
2019-03-21T14:01:57.642Z,103468.99
2019-03-21T14:04:28.560Z,103466.11
2019-03-21T14:06:59.584Z,103463.44
2019-03-21T14:09:30.584Z,103458.31
2019-03-21T14:12:01.649Z,103453.81
2019-03-21T14:14:32.685Z,103456.22
2019-03-21T14:17:03.767Z,103458.36
2019-03-21T14:19:34.879Z,103466.64
2019-03-21T14:22:05.913Z,103460.89
2019-03-21T14:24:36.958Z,103455.98
2019-03-21T14:27:08.115Z,103452.05
2019-03-21T14:29:39.266Z,103456.84
2019-03-21T14:32:10.273Z,103452.67
2019-03-21T14:34:41.223Z,103452.14
2019-03-21T14:37:12.222Z,103457.34
2019-03-21T14:39:43.264Z,103451.48
2019-03-21T14:42:14.293Z,103453.06
2019-03-21T14:44:45.230Z,103457.70
2019-03-21T14:47:16.113Z,103460.26
2019-03-21T14:49:47.196Z,103452.80
2019-03-21T14:52:18.133Z,103449.14
2019-03-21T14:54:49.195Z,103447.23
2019-03-21T14:57:20.141Z,103459.56
2019-03-21T14:59:51.229Z,103461.50
2019-03-21T15:02:22.260Z,103453.94
2019-03-21T15:04:53.237Z,103449.41
2019-03-21T15:07:24.274Z,103451.17
2019-03-21T15:09:55.354Z,103458.28
2019-03-21T15:12:26.534Z,103456.50
2019-03-21T15:14:57.705Z,103457.65
2019-03-21T15:17:29.019Z,103450.02
2019-03-21T15:20:00.181Z,103456.45
2019-03-21T15:22:31.574Z,103461.25
2019-03-21T15:25:02.676Z,103469.03
2019-03-21T15:27:33.772Z,103473.86
2019-03-21T15:30:05.957Z,103464.70
2019-03-21T15:32:37.238Z,103457.23
2019-03-21T15:35:10.611Z,103462.99
2019-03-21T15:37:41.813Z,103457.66
2019-03-21T15:40:13.606Z,103467.22
2019-03-21T15:42:44.816Z,103461.44
2019-03-21T15:45:22.644Z,103457.78
2019-03-21T15:47:49.697Z,103468.65
2019-03-21T15:50:32.702Z,103467.59
2019-03-21T15:53:03.770Z,103474.16
2019-03-21T15:55:35.103Z,103458.28
2019-03-21T15:58:07.396Z,103452.88
2019-03-21T16:00:42.590Z,103458.99
2019-03-21T16:03:14.280Z,103475.11
2019-03-21T16:05:45.362Z,103464.50
2019-03-21T16:08:16.537Z,103470.57
2019-03-21T16:10:47.387Z,103476.61
2019-03-21T16:13:18.290Z,103474.40
2019-03-21T16:15:49.218Z,103470.46
2019-03-21T16:18:20.401Z,103472.12
2019-03-21T16:20:51.403Z,103473.80
2019-03-21T16:23:22.314Z,103482.17
2019-03-21T16:25:53.390Z,103484.73
2019-03-21T16:28:24.413Z,103478.52
2019-03-21T16:30:55.272Z,103482.34
2019-03-21T16:33:26.379Z,103483.66
2019-03-21T16:35:57.402Z,103485.44
2019-03-21T16:38:28.486Z,103470.17
2019-03-21T16:40:59.489Z,103469.75
2019-03-21T16:43:30.618Z,103470.56
2019-03-21T16:46:01.647Z,103472.23
2019-03-21T16:48:33.781Z,103475.28
2019-03-21T16:51:05.195Z,103470.45
2019-03-21T16:53:36.575Z,103465.09
2019-03-21T16:56:08.064Z,103472.97
2019-03-21T16:58:39.461Z,103469.68
2019-03-21T17:01:11.083Z,103471.67
2019-03-21T17:03:42.466Z,103466.27
2019-03-21T17:06:13.630Z,103467.47
2019-03-21T17:08:44.772Z,103470.53
2019-03-21T17:11:15.796Z,103469.49
2019-03-21T17:13:46.839Z,103462.81
2019-03-21T17:16:17.886Z,103467.89
2019-03-21T17:18:48.929Z,103468.25
2019-03-21T17:21:20.062Z,103463.37
2019-03-21T17:23:51.051Z,103467.30
2019-03-21T17:26:22.122Z,103465.27
2019-03-21T17:28:53.185Z,103452.67
2019-03-21T17:31:24.196Z,103455.11
2019-03-21T17:33:55.319Z,103460.25
2019-03-21T17:36:26.461Z,103454.93
2019-03-21T17:38:57.962Z,103465.44
2019-03-21T17:41:29.212Z,103466.36
2019-03-21T17:44:00.594Z,103464.19
2019-03-21T17:46:32.166Z,103465.05
2019-03-21T17:49:03.755Z,103464.13
2019-03-21T17:51:35.102Z,103472.78
2019-03-21T17:54:06.599Z,103464.71
2019-03-21T17:59:15.822Z,103455.85
2019-03-21T18:01:47.340Z,103459.53
2019-03-21T18:04:18.618Z,103461.20
2019-03-21T18:06:50.053Z,103457.19
2019-03-21T18:09:21.837Z,103461.13
2019-03-21T18:11:53.268Z,103457.08
2019-03-21T18:14:24.732Z,103456.11
2019-03-21T18:16:55.787Z,103459.98
2019-03-21T18:19:26.816Z,103455.15
2019-03-21T18:21:57.834Z,103460.33
2019-03-21T18:24:28.937Z,103460.29
2019-03-21T18:26:59.983Z,103459.25
2019-03-21T18:29:31.050Z,103455.66
2019-03-21T18:32:02.138Z,103458.29
2019-03-21T18:34:33.302Z,103462.23
2019-03-21T18:37:04.353Z,103465.20
2019-03-21T18:39:35.407Z,103461.61
2019-03-21T18:42:07.801Z,103473.08
2019-03-21T18:44:38.747Z,103469.48
2019-03-21T18:47:10.027Z,103467.29
2019-03-21T18:49:44.045Z,103461.15
2019-03-21T18:52:15.453Z,103472.11
2019-03-21T18:54:46.775Z,103472.96
2019-03-21T18:57:18.024Z,103471.19
2019-03-21T18:59:49.299Z,103465.86
2019-03-21T19:02:20.666Z,103466.75
2019-03-21T19:04:52.415Z,103481.19
2019-03-21T19:09:57.005Z,103480.14
2019-03-21T19:12:28.385Z,103475.86
2019-03-21T19:14:59.910Z,103482.30
2019-03-21T19:17:32.032Z,103478.80
2019-03-21T19:20:03.712Z,103476.98
2019-03-21T19:22:35.015Z,103476.86
2019-03-21T19:25:17.887Z,103471.55
2019-03-21T19:27:40.406Z,103473.63
2019-03-21T19:30:12.724Z,103473.16
2019-03-21T19:32:44.081Z,103475.78
2019-03-21T19:35:16.039Z,103484.47
2019-03-21T19:37:47.510Z,103480.84
2019-03-21T19:40:19.065Z,103482.00
2019-03-21T19:42:50.477Z,103476.70
2019-03-21T19:45:27.154Z,103476.20
2019-03-21T19:47:58.887Z,103484.08
2019-03-21T19:50:30.194Z,103486.23
2019-03-21T19:53:01.524Z,103487.89
2019-03-21T19:55:32.871Z,103492.17
2019-03-21T19:58:04.744Z,103487.77
2019-03-21T20:00:36.297Z,103485.50
2019-03-21T20:03:08.121Z,103489.82
2019-03-21T20:05:39.508Z,103484.57
2019-03-21T20:08:10.903Z,103487.20
2019-03-21T20:10:43.568Z,103489.90
2019-03-21T20:13:15.495Z,103486.81
2019-03-21T20:15:47.106Z,103490.67
2019-03-21T20:18:18.317Z,103487.08
2019-03-21T20:20:49.705Z,103480.86
2019-03-21T20:23:21.288Z,103478.23
2019-03-21T20:25:52.881Z,103478.23
2019-03-21T20:28:26.040Z,103486.95
2019-03-21T20:30:57.622Z,103487.84
2019-03-21T20:33:29.020Z,103487.84
2019-03-21T20:36:00.452Z,103483.78
2019-03-21T20:38:31.949Z,103494.83
2019-03-21T20:41:03.674Z,103491.28
2019-03-21T20:43:35.023Z,103489.97
2019-03-21T20:46:06.555Z,103489.50
2019-03-21T20:48:34.994Z,103499.02
2019-03-21T20:51:09.586Z,103497.29
2019-03-21T20:53:40.960Z,103494.63
2019-03-21T20:56:12.200Z,103499.72
2019-03-21T20:58:43.517Z,103497.17
2019-03-21T21:01:14.917Z,103500.60
2019-03-21T21:03:46.189Z,103504.49
2019-03-21T21:06:17.427Z,103503.18
2019-03-21T21:11:22.123Z,103485.59
2019-03-21T21:13:53.450Z,103493.30
2019-03-21T21:16:24.734Z,103494.48
2019-03-21T21:18:56.073Z,103492.28
2019-03-21T21:21:27.471Z,103485.11
2019-03-21T21:23:58.757Z,103485.11
2019-03-21T21:26:30.023Z,103484.77
2019-03-21T21:29:01.444Z,103477.86
2019-03-21T21:31:33.289Z,103474.81
2019-03-21T21:34:05.933Z,103465.38
2019-03-21T21:36:37.308Z,103457.84
2019-03-21T21:39:24.117Z,103464.80
2019-03-21T21:41:55.568Z,103471.28
2019-03-21T21:44:27.052Z,103473.91
2019-03-21T21:46:58.410Z,103469.89
2019-03-21T21:49:29.840Z,103466.88
2019-03-21T21:52:01.298Z,103459.41
2019-03-21T21:54:32.718Z,103456.66
2019-03-21T21:57:04.115Z,103453.57
2019-03-21T21:59:35.509Z,103459.70
2019-03-21T22:02:08.105Z,103465.84
2019-03-21T22:04:39.398Z,103465.15
2019-03-21T22:07:11.132Z,103455.97
2019-03-21T22:09:42.598Z,103459.91
2019-03-21T22:12:14.078Z,103459.91
2019-03-21T22:14:47.555Z,103454.58
2019-03-21T22:17:18.879Z,103456.31
2019-03-21T22:19:50.201Z,103459.41
2019-03-21T22:22:21.941Z,103462.11
2019-03-21T22:24:53.424Z,103467.81
2019-03-21T22:27:24.742Z,103463.87
2019-03-21T22:32:19.758Z,103452.50
2019-03-21T22:34:50.793Z,103458.25
2019-03-21T22:37:21.758Z,103462.99
2019-03-21T22:39:52.609Z,103461.64
2019-03-21T22:42:23.471Z,103462.88
2019-03-21T22:44:54.345Z,103461.06
2019-03-21T22:47:25.647Z,103464.06
2019-03-21T22:49:56.592Z,103460.86
2019-03-21T22:52:27.526Z,103463.78
2019-03-21T22:54:58.472Z,103451.44
2019-03-21T22:57:29.329Z,103457.91
2019-03-21T23:00:00.446Z,103462.19
2019-03-21T23:02:31.504Z,103457.28
2019-03-21T23:05:02.449Z,103455.98
2019-03-21T23:07:33.333Z,103460.87
2019-03-21T23:10:04.671Z,103457.45
2019-03-21T23:12:35.728Z,103452.67
2019-03-21T23:15:08.358Z,103436.47
2019-03-21T23:17:39.400Z,103435.63
2019-03-21T23:20:11.191Z,103439.21
2019-03-21T23:22:42.212Z,103434.86
2019-03-21T23:25:16.569Z,103433.97
2019-03-21T23:27:46.994Z,103430.03
2019-03-21T23:30:18.178Z,103422.98
2019-03-21T23:32:49.262Z,103419.55
2019-03-21T23:35:20.304Z,103423.94
2019-03-21T23:37:51.189Z,103422.25
2019-03-21T23:40:22.246Z,103423.94
2019-03-21T23:42:53.367Z,103422.25
2019-03-21T23:45:24.497Z,103424.79
2019-03-21T23:47:56.573Z,103427.41
2019-03-21T23:50:27.614Z,103428.30
2019-03-21T23:52:58.654Z,103430.92
2019-03-21T23:55:29.569Z,103416.84
2019-03-21T23:58:00.431Z,103418.11
